createdAt,value
2017-11-07T00:02:22.414Z,19.70
2017-11-07T00:08:25.917Z,17.53
2017-11-07T00:14:30.173Z,36.13
2017-11-07T00:20:33.680Z,398.80
2017-11-07T00:26:37.172Z,39.30
2017-11-07T00:32:40.675Z,99.37
2017-11-07T00:38:44.938Z,136.60
2017-11-07T00:44:48.439Z,242.73
2017-11-07T00:50:51.957Z,169.27
2017-11-07T00:56:55.497Z,140.70
2017-11-07T01:02:58.993Z,259.17
2017-11-07T01:09:02.475Z,171.07
2017-11-07T01:15:05.966Z,176.33
2017-11-07T01:21:09.477Z,48.07
2017-11-07T01:27:13.734Z,37.70
2017-11-07T01:33:17.234Z,90.57
2017-11-07T01:39:20.739Z,112.07
2017-11-07T01:45:25.003Z,58.10
2017-11-07T01:51:28.500Z,73.03
2017-11-07T01:57:31.980Z,99.77
2017-11-07T02:03:35.464Z,20.83
2017-11-07T02:09:38.945Z,29.97
2017-11-07T02:15:42.459Z,57.60
2017-11-07T02:21:46.697Z,21.50
2017-11-07T02:27:50.179Z,8.80
2017-11-07T02:33:53.652Z,8.27
2017-11-07T02:39:57.149Z,10.07
2017-11-07T02:46:00.633Z,87.73
2017-11-07T02:52:04.130Z,129.33
2017-11-07T02:58:07.621Z,80.77
2017-11-07T03:04:11.110Z,81.50
2017-11-07T03:10:14.684Z,60.40
2017-11-07T03:16:18.181Z,30.17
2017-11-07T03:22:21.772Z,19.03
2017-11-07T03:28:26.797Z,42.67
2017-11-07T03:34:30.288Z,27.30
2017-11-07T03:40:33.777Z,69.93
2017-11-07T03:46:37.264Z,104.67
2017-11-07T03:52:40.744Z,49.47
2017-11-07T03:58:44.272Z,99.03
2017-11-07T04:04:47.763Z,103.67
2017-11-07T04:10:51.269Z,186.20
2017-11-07T04:16:54.782Z,178.47
2017-11-07T04:22:58.267Z,208.53
2017-11-07T04:29:01.777Z,147.27
2017-11-07T04:35:06.040Z,228.87
2017-11-07T04:41:09.552Z,179.33
2017-11-07T04:47:13.822Z,39.30
2017-11-07T04:53:17.309Z,42.83
2017-11-07T04:59:20.812Z,43.57
2017-11-07T05:05:24.327Z,97.97
2017-11-07T05:11:27.852Z,57.57
2017-11-07T05:17:31.344Z,28.30
2017-11-07T05:23:34.834Z,31.77
2017-11-07T05:29:38.338Z,28.63
2017-11-07T05:35:42.616Z,74.73
2017-11-07T05:41:47.030Z,415.07
2017-11-07T05:47:50.535Z,350.53
2017-11-07T05:53:54.894Z,280.03
2017-11-07T05:59:58.388Z,264.23
2017-11-07T06:06:01.893Z,92.50
2017-11-07T06:12:06.885Z,142.23
2017-11-07T06:18:10.388Z,70.47
2017-11-07T06:24:15.374Z,19.53
2017-11-07T06:30:18.863Z,22.90
2017-11-07T06:36:22.379Z,63.37
2017-11-07T06:42:25.864Z,33.57
2017-11-07T06:48:29.342Z,14.37
2017-11-07T06:54:32.837Z,9.43
2017-11-07T07:00:36.312Z,8.00
2017-11-07T07:06:39.803Z,8.33
2017-11-07T07:12:43.301Z,16.03
2017-11-07T07:18:46.782Z,7.93
2017-11-07T07:24:50.357Z,7.53
2017-11-07T07:30:55.291Z,13.90
2017-11-07T07:36:59.540Z,9.20
2017-11-07T07:43:03.025Z,8.77
2017-11-07T07:49:06.517Z,10.53
2017-11-07T07:55:10.001Z,11.20
2017-11-07T08:01:13.516Z,10.53
2017-11-07T08:07:17.643Z,12.63
2017-11-07T08:13:22.102Z,7.97
2017-11-07T08:19:26.015Z,8.10
2017-11-07T08:25:29.805Z,9.50
2017-11-07T08:31:34.798Z,7.83
2017-11-07T08:37:38.528Z,9.73
2017-11-07T08:43:42.795Z,7.30
2017-11-07T08:49:46.280Z,5.77
2017-11-07T08:55:49.753Z,6.37
2017-11-07T09:01:53.574Z,6.60
2017-11-07T09:07:57.050Z,11.33
2017-11-07T09:14:00.634Z,7.73
2017-11-07T09:20:04.130Z,9.77
2017-11-07T09:26:07.614Z,6.70
2017-11-07T09:32:11.105Z,6.57
2017-11-07T09:38:15.387Z,7.27
2017-11-07T09:44:18.866Z,6.67
2017-11-07T09:50:22.352Z,7.47
2017-11-07T09:56:25.863Z,17.80
2017-11-07T10:02:29.336Z,43.37
2017-11-07T10:08:33.123Z,8.23
2017-11-07T10:14:36.890Z,6.47
2017-11-07T10:20:40.699Z,5.83
2017-11-07T10:26:44.170Z,8.63
2017-11-07T10:32:47.982Z,9.57
2017-11-07T10:38:52.245Z,7.23
2017-11-07T10:44:55.713Z,9.30
2017-11-07T10:50:59.454Z,9.60
2017-11-07T10:57:02.935Z,13.87
2017-11-07T11:03:06.433Z,12.53
2017-11-07T11:09:10.239Z,13.40
2017-11-07T11:15:14.488Z,11.97
2017-11-07T11:21:17.969Z,13.53
2017-11-07T11:27:21.455Z,12.43
2017-11-07T11:33:25.668Z,16.03
2017-11-07T11:39:29.149Z,15.93
2017-11-07T11:45:32.966Z,13.10
2017-11-07T11:51:36.449Z,12.37
2017-11-07T11:57:39.935Z,17.83
2017-11-07T12:03:43.422Z,15.77
2017-11-07T12:09:47.104Z,17.27
2017-11-07T12:15:50.621Z,20.03
2017-11-07T12:21:55.208Z,20.50
2017-11-07T12:27:58.710Z,21.40
2017-11-07T12:34:02.953Z,19.30
2017-11-07T12:40:06.573Z,20.23
2017-11-07T12:46:10.134Z,21.57
2017-11-07T12:52:13.626Z,16.47
2017-11-07T12:58:17.199Z,19.50
2017-11-07T13:04:20.678Z,31.40
2017-11-07T13:10:25.022Z,17.23
2017-11-07T13:16:28.825Z,19.30
2017-11-07T13:22:33.080Z,21.73
2017-11-07T13:28:36.555Z,35.07
2017-11-07T13:34:40.039Z,19.73
2017-11-07T13:40:43.527Z,22.80
2017-11-07T13:46:47.024Z,19.50
2017-11-07T13:52:50.511Z,19.60
2017-11-07T13:58:53.988Z,30.03
2017-11-07T14:04:57.473Z,20.77
2017-11-07T14:11:01.310Z,25.97
2017-11-07T14:17:05.573Z,26.63
2017-11-07T14:23:09.221Z,24.53
2017-11-07T14:29:12.705Z,21.70
2017-11-07T14:35:16.206Z,21.27
2017-11-07T14:41:19.731Z,21.97
2017-11-07T14:47:24.078Z,20.07
2017-11-07T14:53:28.346Z,19.37
2017-11-07T14:59:31.839Z,23.37
2017-11-07T15:05:35.338Z,23.97
2017-11-07T15:11:39.614Z,65.40
2017-11-07T15:17:43.130Z,25.57
2017-11-07T15:23:47.377Z,29.10
2017-11-07T15:29:50.953Z,24.67
2017-11-07T15:35:54.503Z,20.67
2017-11-07T15:41:59.080Z,23.50
2017-11-07T15:48:02.740Z,25.67
2017-11-07T15:54:06.250Z,28.17
2017-11-07T16:00:09.743Z,27.37
2017-11-07T16:06:13.539Z,39.33
2017-11-07T16:12:17.017Z,27.00
2017-11-07T16:18:20.498Z,32.40
2017-11-07T16:24:24.606Z,25.50
2017-11-07T16:30:28.393Z,23.80
2017-11-07T16:36:31.879Z,30.43
2017-11-07T16:42:35.377Z,24.03
2017-11-07T16:48:38.868Z,26.60
2017-11-07T16:54:43.122Z,26.20
2017-11-07T17:00:46.695Z,29.47
2017-11-07T17:06:50.535Z,32.80
2017-11-07T17:12:54.808Z,29.90
2017-11-07T17:18:58.310Z,34.77
2017-11-07T17:25:01.891Z,33.77
2017-11-07T17:31:05.420Z,29.40
2017-11-07T17:37:09.673Z,26.47
2017-11-07T17:43:13.163Z,28.53
2017-11-07T17:49:16.657Z,31.57
2017-11-07T17:55:20.920Z,30.27
2017-11-07T18:01:24.578Z,33.73
2017-11-07T18:07:29.157Z,33.63
2017-11-07T18:13:33.040Z,37.53
2017-11-07T18:19:36.544Z,39.23
2017-11-07T18:25:40.035Z,33.53
2017-11-07T18:31:44.299Z,44.27
2017-11-07T18:37:47.802Z,37.47
2017-11-07T18:43:51.599Z,44.77
2017-11-07T18:49:55.098Z,34.30
2017-11-07T18:55:59.365Z,36.90
2017-11-07T19:02:03.173Z,33.33
2017-11-07T19:08:06.655Z,35.77
2017-11-07T19:14:10.163Z,42.17
2017-11-07T19:20:14.454Z,34.60
2017-11-07T19:26:17.995Z,37.33
2017-11-07T19:32:21.484Z,49.67
2017-11-07T19:38:24.973Z,32.90
2017-11-07T19:44:28.449Z,34.20
2017-11-07T19:50:31.955Z,41.83
2017-11-07T19:56:35.458Z,37.50
2017-11-07T20:02:38.946Z,36.97
2017-11-07T20:08:42.728Z,34.80
2017-11-07T20:14:46.252Z,35.90
2017-11-07T20:20:50.097Z,31.13
2017-11-07T20:26:53.590Z,33.23
2017-11-07T20:32:57.080Z,33.43
2017-11-07T20:39:01.334Z,35.57
2017-11-07T20:45:05.097Z,31.40
2017-11-07T20:51:09.333Z,29.20
2017-11-07T20:57:12.840Z,31.63
2017-11-07T21:03:16.655Z,35.37
2017-11-07T21:15:29.978Z,29.43
2017-11-07T21:21:33.755Z,36.80
2017-11-07T21:27:37.265Z,35.87
2017-11-07T21:33:41.513Z,38.60
2017-11-07T21:39:46.752Z,41.97
2017-11-07T21:45:50.244Z,38.30
2017-11-07T21:51:55.231Z,41.37
2017-11-07T21:57:58.743Z,47.90
2017-11-07T22:04:02.239Z,49.83
2017-11-07T22:10:06.071Z,43.50
2017-11-07T22:16:09.539Z,45.90
2017-11-07T22:22:13.041Z,38.40
2017-11-07T22:28:16.521Z,34.83
2017-11-07T22:34:20.017Z,40.80
2017-11-07T22:40:23.498Z,33.07
2017-11-07T22:46:27.013Z,37.20
2017-11-07T22:52:30.775Z,33.20
2017-11-07T22:58:34.267Z,31.50
2017-11-07T23:04:37.769Z,36.13
2017-11-07T23:10:41.244Z,27.50
2017-11-07T23:16:45.064Z,32.40
2017-11-07T23:22:48.657Z,37.70
2017-11-07T23:28:52.137Z,33.40
2017-11-07T23:34:55.606Z,37.03
2017-11-07T23:40:59.085Z,34.00
2017-11-07T23:47:02.584Z,37.03
2017-11-07T23:53:06.071Z,34.53
2017-11-07T23:59:09.553Z,34.27
